Time;durP1;ratioP1;P1;durP2;ratioP2;P2;SDS_P1;SDS_P2;PMS_P1;PMS_P2;Temp;Humidity;BMP_temperature;BMP_pressure;BME280_temperature;BME280_humidity;BME280_pressure;Samples;Min_cycle;Max_cycle;Signal;HPM_P1;HPM_P2
2022/08/30 00:01:14;;;;;;;8.20;3.55;;;;;;;27.30;45.78;98807.84;6127670;23;20147;-87
2022/08/30 00:03:45;;;;;;;7.80;3.58;;;;;;;27.00;46.82;98808.16;6101676;23;20152;-87
2022/08/30 00:06:15;;;;;;;8.13;4.68;;;;;;;27.21;46.34;98813.53;6126924;23;20159;-88
2022/08/30 00:08:42;;;;;;;11.05;3.28;;;;;;;27.19;46.76;98811.06;6101222;23;20231;-88
2022/08/30 00:11:11;;;;;;;11.03;4.23;;;;;;;27.23;45.89;98804.25;6126899;23;20162;-88
2022/08/30 00:13:38;;;;;;;7.37;3.87;;;;;;;27.23;46.35;98806.94;6101315;23;20160;-88
2022/08/30 00:16:05;;;;;;;9.15;3.53;;;;;;;27.19;46.63;98811.06;6126903;23;20152;-88
2022/08/30 00:18:34;;;;;;;6.10;3.87;;;;;;;27.13;46.24;98810.97;6127093;23;20214;-88
2022/08/30 00:21:00;;;;;;;10.25;4.55;;;;;;;27.16;46.59;98800.69;6101173;23;20238;-88
2022/08/30 00:23:25;;;;;;;10.60;3.60;;;;;;;27.23;46.04;98806.09;6126770;23;20159;-88
2022/08/30 00:25:51;;;;;;;12.30;3.93;;;;;;;27.09;46.50;98815.09;6127446;23;20148;-87
2022/08/30 00:28:17;;;;;;;9.00;3.42;;;;;;;27.02;46.90;98803.47;6126650;23;20180;-87
2022/08/30 00:30:44;;;;;;;7.23;4.03;;;;;;;27.09;46.70;98804.34;6101028;23;20502;-88
2022/08/30 00:33:11;;;;;;;10.40;4.03;;;;;;;27.00;47.13;98800.09;6126971;23;20152;-88
2022/08/30 00:35:38;;;;;;;8.18;3.85;;;;;;;27.14;46.76;98805.44;6126633;23;20152;-88
2022/08/30 00:38:07;;;;;;;4.82;2.95;;;;;;;27.16;46.35;98806.06;6126948;23;20152;-88
2022/08/30 00:40:33;;;;;;;12.17;3.60;;;;;;;27.10;46.02;98806.81;6101002;23;20167;-87
2022/08/30 00:43:01;;;;;;;8.32;3.80;;;;;;;27.18;45.94;98809.38;6101679;23;20507;-87
2022/08/30 00:45:31;;;;;;;7.00;3.30;;;;;;;27.09;46.03;98807.03;6126611;23;20598;-87
2022/08/30 00:47:58;;;;;;;10.77;4.00;;;;;;;26.95;46.67;98813.31;6126416;23;20211;-87
2022/08/30 00:50:28;;;;;;;12.50;3.47;;;;;;;27.01;46.59;98807.16;6127171;23;20162;-88
2022/08/30 00:52:57;;;;;;;7.90;3.40;;;;;;;26.81;47.33;98796.19;6126592;23;20194;-88
2022/08/30 00:55:23;;;;;;;7.67;3.87;;;;;;;26.94;46.85;98809.78;6126874;23;20228;-88
2022/08/30 00:57:52;;;;;;;9.20;2.90;;;;;;;26.95;46.59;98807.91;6127176;23;20506;-87
2022/08/30 01:00:18;;;;;;;9.20;3.00;;;;;;;26.87;47.03;98806.19;6126483;23;20164;-87
2022/08/30 01:02:43;;;;;;;23.10;3.23;;;;;;;26.83;47.36;98802.25;6100917;23;20189;-88
2022/08/30 01:05:10;;;;;;;8.13;3.40;;;;;;;27.01;46.63;98805.31;6127103;23;20155;-88
2022/08/30 01:07:40;;;;;;;6.57;3.37;;;;;;;27.02;46.57;98811.53;6126923;23;20678;-88
2022/08/30 01:10:09;;;;;;;9.83;3.03;;;;;;;26.89;47.07;98801.44;6126364;23;20664;-89
2022/08/30 01:12:36;;;;;;;9.53;3.10;;;;;;;26.68;47.46;98804.09;6127065;23;20664;-87
2022/08/30 01:15:02;;;;;;;12.13;3.33;;;;;;;26.68;47.66;98804.09;6126394;23;20156;-88
2022/08/30 01:17:28;;;;;;;8.03;3.57;;;;;;;26.62;48.15;98807.56;6126389;23;20609;-88
2022/08/30 01:20:24;;;;;;;7.47;3.30;;;;;;;26.50;48.57;98807.22;6126699;23;20152;-88
2022/08/30 01:22:50;;;;;;;10.50;3.93;;;;;;;26.58;48.72;98801.72;6126999;23;20226;-88
2022/08/30 01:25:28;;;;;;;16.73;4.20;;;;;;;26.52;48.52;98796.28;6126639;23;20160;-87
2022/08/30 01:28:06;;;;;;;13.83;4.07;;;;;;;26.53;48.88;98798.78;6126556;23;20183;-88
2022/08/30 01:30:32;;;;;;;13.67;4.07;;;;;;;26.55;48.81;98796.72;6126649;23;20151;-88
2022/08/30 01:33:01;;;;;;;11.03;3.70;;;;;;;26.47;48.91;98804.91;6126315;23;20175;-88
2022/08/30 01:35:44;;;;;;;6.80;3.38;;;;;;;26.44;49.09;98797.22;6126262;23;20177;-87
2022/08/30 01:38:11;;;;;;;8.63;3.87;;;;;;;26.27;49.66;98801.16;6126600;23;20143;-88
2022/08/30 01:40:36;;;;;;;8.03;4.03;;;;;;;26.34;49.67;98795.84;6126582;23;20174;-87
2022/08/30 01:43:02;;;;;;;10.35;4.10;;;;;;;26.28;49.69;98789.41;6126540;23;20564;-87
2022/08/30 01:45:27;;;;;;;7.57;3.90;;;;;;;26.31;49.35;98790.88;6126548;23;20306;-88
2022/08/30 01:47:53;;;;;;;9.43;3.55;;;;;;;26.38;49.69;98799.84;6126045;23;20176;-87
2022/08/30 01:50:18;;;;;;;6.73;3.70;;;;;;;26.30;49.28;98789.19;6126565;23;20158;-88
2022/08/30 01:52:44;;;;;;;13.67;4.00;;;;;;;26.32;49.31;98792.53;6126057;23;20242;-87
2022/08/30 01:55:09;;;;;;;6.07;3.73;;;;;;;26.33;49.48;98800.41;6126866;23;20162;-88
2022/08/30 01:57:35;;;;;;;10.03;4.07;;;;;;;26.23;49.65;98783.75;6126135;23;20155;-87
2022/08/30 02:00:00;;;;;;;8.13;3.97;;;;;;;26.18;50.05;98789.66;6127308;23;20299;-88
2022/08/30 02:02:28;;;;;;;7.53;3.60;;;;;;;26.20;49.92;98787.63;6128411;23;20152;-88
2022/08/30 02:04:54;;;;;;;10.07;4.00;;;;;;;26.21;49.73;98793.84;6128072;23;20148;-87
2022/08/30 02:07:21;;;;;;;8.50;4.10;;;;;;;26.15;49.77;98795.41;6127953;23;20156;-89
2022/08/30 02:09:46;;;;;;;7.77;4.03;;;;;;;26.10;49.92;98792.44;6128389;23;20226;-87
2022/08/30 02:12:13;;;;;;;10.07;3.67;;;;;;;26.16;49.85;98797.09;6102479;23;20606;-88
2022/08/30 02:14:39;;;;;;;16.23;4.47;;;;;;;26.13;49.77;98796.63;6127962;23;20152;-88
2022/08/30 02:17:07;;;;;;;8.30;4.00;;;;;;;26.24;49.20;98796.16;6128271;23;20152;-88
2022/08/30 02:19:32;;;;;;;7.27;4.27;;;;;;;26.36;48.75;98796.50;6127885;23;20227;-88
2022/08/30 02:21:58;;;;;;;7.23;4.20;;;;;;;26.43;48.51;98797.41;6127933;23;20167;-88
2022/08/30 02:24:24;;;;;;;9.20;4.37;;;;;;;26.46;48.31;98792.50;6102286;23;20295;-87
2022/08/30 02:26:52;;;;;;;8.97;3.63;;;;;;;26.32;48.56;98801.41;6127898;23;20156;-88
2022/08/30 02:29:18;;;;;;;8.03;3.90;;;;;;;26.44;48.68;98793.72;6102953;23;20203;-88
2022/08/30 02:31:44;;;;;;;12.60;4.23;;;;;;;26.54;48.17;98799.63;6102322;23;20155;-88
2022/08/30 02:34:10;;;;;;;11.67;3.83;;;;;;;26.43;48.40;98797.41;6127801;23;20152;-87
2022/08/30 02:36:35;;;;;;;12.83;4.03;;;;;;;26.27;48.80;98798.47;6127780;23;20159;-88
2022/08/30 02:39:01;;;;;;;9.83;4.93;;;;;;;26.30;48.27;98798.09;6127714;23;20171;-89
2022/08/30 02:41:27;;;;;;;7.90;4.07;;;;;;;26.23;48.48;98794.50;6102235;23;20248;-88
2022/08/30 02:43:57;;;;;;;14.47;4.63;;;;;;;26.23;48.55;98794.50;6128410;23;20214;-88
2022/08/30 02:46:23;;;;;;;8.20;4.07;;;;;;;26.37;48.00;98804.38;6127677;23;20154;-88
2022/08/30 02:48:48;;;;;;;10.03;4.43;;;;;;;26.40;48.00;98803.16;6127942;23;20180;-88
2022/08/30 02:51:14;;;;;;;5.40;3.90;;;;;;;26.10;48.22;98803.19;6127681;23;20186;-88
2022/08/30 02:53:42;;;;;;;13.37;4.67;;;;;;;26.15;48.66;98810.72;6127602;23;20230;-88
2022/08/30 02:56:08;;;;;;;9.33;4.17;;;;;;;26.14;48.86;98803.69;6102088;23;20152;-89
2022/08/30 02:58:35;;;;;;;8.70;4.37;;;;;;;26.08;48.80;98815.13;6102051;23;20583;-87
2022/08/30 03:01:00;;;;;;;6.60;4.10;;;;;;;26.03;48.82;98813.00;6127569;23;20483;-87
2022/08/30 03:03:26;;;;;;;8.47;4.10;;;;;;;26.17;48.69;98809.53;6101968;23;20152;-88
2022/08/30 03:05:51;;;;;;;6.27;3.63;;;;;;;26.28;48.19;98807.38;6127580;23;20510;-89
2022/08/30 03:08:17;;;;;;;8.60;3.90;;;;;;;26.00;49.06;98812.53;6127416;23;20624;-87
2022/08/30 03:10:43;;;;;;;8.80;3.77;;;;;;;26.00;49.36;98818.75;6127622;23;20152;-88
2022/08/30 03:13:08;;;;;;;11.20;4.90;;;;;;;25.96;49.24;98822.00;6127487;23;20151;-88
2022/08/30 03:15:36;;;;;;;11.53;5.60;;;;;;;25.95;49.36;98820.31;6127803;23;20555;-88
2022/08/30 03:18:02;;;;;;;5.33;3.70;;;;;;;25.79;49.72;98829.41;6101869;23;20156;-87
2022/08/30 03:20:27;;;;;;;14.30;5.03;;;;;;;25.76;50.16;98827.06;6101817;23;20160;-88
2022/08/30 03:22:53;;;;;;;7.80;3.93;;;;;;;25.78;50.31;98825.06;6127454;23;20159;-89
2022/08/30 03:25:22;;;;;;;8.00;4.93;;;;;;;25.73;50.12;98835.53;6127735;23;20631;-88
2022/08/30 03:27:49;;;;;;;6.37;4.20;;;;;;;25.77;50.31;98834.13;6127602;23;20179;-88
2022/08/30 03:30:16;;;;;;;11.33;4.87;;;;;;;25.56;51.11;98837.53;6127364;23;20152;-88
2022/08/30 03:32:42;;;;;;;9.73;4.47;;;;;;;25.58;51.07;98842.69;6127285;23;20171;-87
2022/08/30 03:35:08;;;;;;;6.63;4.20;;;;;;;25.53;51.58;98837.06;6127655;23;20159;-87
2022/08/30 03:37:34;;;;;;;8.07;4.27;;;;;;;25.64;50.99;98841.97;6127263;23;20151;-88
2022/08/30 03:40:00;;;;;;;12.03;4.07;;;;;;;25.76;50.56;98845.06;6127821;23;20156;-88
2022/08/30 03:42:26;;;;;;;7.27;4.33;;;;;;;25.65;51.29;98840.97;6127599;23;20494;-88
2022/08/30 03:44:51;;;;;;;6.47;4.10;;;;;;;25.75;51.05;98836.16;6127235;23;20478;-88
2022/08/30 03:47:16;;;;;;;11.10;4.30;;;;;;;25.74;51.15;98839.03;6127146;23;20152;-88
2022/08/30 03:49:42;;;;;;;10.80;3.87;;;;;;;25.74;51.05;98841.69;6127417;23;20211;-87
2022/08/30 03:52:07;;;;;;;8.03;3.83;;;;;;;25.71;51.51;98840.22;6127332;23;20158;-88
2022/08/30 03:54:33;;;;;;;7.30;4.50;;;;;;;25.58;51.81;98840.84;6127381;23;20158;-88
2022/08/30 03:56:58;;;;;;;6.57;3.77;;;;;;;25.68;51.93;98843.31;6101376;23;20199;-87
2022/08/30 03:59:24;;;;;;;9.47;4.50;;;;;;;25.59;51.72;98842.53;6127662;23;20172;-88
2022/08/30 04:01:50;;;;;;;7.40;4.03;;;;;;;25.63;52.03;98851.03;6127009;23;20572;-88
2022/08/30 04:04:15;;;;;;;7.93;4.13;;;;;;;25.56;51.82;98853.63;6125513;23;20505;-88
2022/08/30 04:06:41;;;;;;;7.13;4.40;;;;;;;25.80;51.14;98849.03;6125446;23;20152;-88
2022/08/30 04:09:06;;;;;;;9.93;4.20;;;;;;;25.86;51.04;98854.53;6125772;23;20249;-88
2022/08/30 04:11:32;;;;;;;8.87;3.97;;;;;;;25.77;51.44;98850.25;6100895;23;20155;-88
2022/08/30 04:13:58;;;;;;;6.97;4.10;;;;;;;25.75;51.68;98854.97;6126455;23;20214;-88
2022/08/30 04:16:25;;;;;;;8.57;3.60;;;;;;;25.91;51.20;98857.47;6126917;23;20553;-88
2022/08/30 04:18:51;;;;;;;7.67;4.13;;;;;;;26.05;50.79;98863.84;6126782;23;20161;-87
2022/08/30 04:21:16;;;;;;;7.47;4.03;;;;;;;26.09;50.62;98857.09;6125834;23;20168;-87
2022/08/30 04:23:42;;;;;;;10.27;4.60;;;;;;;26.14;50.90;98860.09;6126678;23;20159;-87
2022/08/30 04:26:08;;;;;;;10.17;3.87;;;;;;;26.20;50.89;98862.06;6126746;23;20235;-87
2022/08/30 04:28:34;;;;;;;7.57;4.00;;;;;;;26.11;51.28;98857.75;6126613;23;20175;-88
2022/08/30 04:31:07;;;;;;;8.10;4.50;;;;;;;26.16;51.06;98866.94;6126405;23;20156;-87
2022/08/30 04:33:34;;;;;;;12.23;4.33;;;;;;;26.24;50.78;98869.53;6125703;23;20143;-87
2022/08/30 04:36:05;;;;;;;5.87;4.07;;;;;;;26.29;50.50;98866.28;6125401;23;20235;-87
2022/08/30 04:38:31;;;;;;;13.33;3.87;;;;;;;26.42;50.50;98876.38;6127014;23;20136;-87
2022/08/30 04:40:57;;;;;;;6.27;4.17;;;;;;;26.29;50.66;98868.13;6126638;23;20148;-88
2022/08/30 04:43:25;;;;;;;10.30;4.90;;;;;;;26.30;50.40;98873.34;6126619;23;20158;-88
2022/08/30 04:45:51;;;;;;;8.73;4.67;;;;;;;26.42;50.25;98873.69;6101009;23;20167;-87
2022/08/30 04:48:17;;;;;;;7.83;4.67;;;;;;;26.39;50.27;98876.78;6100921;23;20193;-87
2022/08/30 04:50:43;;;;;;;7.87;4.47;;;;;;;26.43;50.32;98878.06;6127212;23;20252;-88
2022/08/30 04:53:08;;;;;;;6.80;4.57;;;;;;;26.26;50.41;98879.28;6126614;23;20584;-88
2022/08/30 04:55:39;;;;;;;9.40;4.93;;;;;;;26.28;50.41;98877.25;6101015;23;20159;-88
2022/08/30 04:58:05;;;;;;;7.00;4.13;;;;;;;26.26;50.62;98881.97;6126580;23;20152;-88
2022/08/30 05:00:31;;;;;;;9.57;4.27;;;;;;;26.23;51.04;98873.25;6126518;23;20156;-89
2022/08/30 05:02:56;;;;;;;11.80;4.67;;;;;;;26.31;50.77;98877.69;6126823;23;20154;-87
2022/08/30 05:05:43;;;;;;;8.83;4.53;;;;;;;26.27;50.68;98879.09;6127227;23;20151;-89
2022/08/30 05:08:10;;;;;;;8.13;4.50;;;;;;;26.63;49.87;98873.75;6100854;23;20190;-89
2022/08/30 05:10:43;;;;;;;8.98;4.70;;;;;;;26.60;49.79;98880.31;6127182;23;20159;-89
2022/08/30 05:13:13;;;;;;;8.03;4.87;;;;;;;26.78;49.08;98883.47;6126790;23;20135;-89
2022/08/30 05:15:39;;;;;;;10.30;4.67;;;;;;;26.76;49.75;98884.66;6126750;23;20155;-88
2022/08/30 05:18:08;;;;;;;6.70;4.20;;;;;;;26.73;50.21;98883.19;6126765;23;20158;-90
2022/08/30 05:20:36;;;;;;;11.90;5.03;;;;;;;26.82;49.29;98882.09;6126243;23;20221;-88
2022/08/30 05:23:02;;;;;;;7.78;4.13;;;;;;;26.83;49.87;98891.81;6100825;23;20155;-89
2022/08/30 05:25:32;;;;;;;7.25;4.05;;;;;;;26.88;49.66;98885.88;6126767;23;20203;-89
2022/08/30 05:27:58;;;;;;;15.40;5.27;;;;;;;26.94;49.18;98895.03;6127036;23;20168;-88
2022/08/30 05:30:28;;;;;;;6.83;4.23;;;;;;;27.09;48.62;98898.50;6126966;23;20158;-90
2022/08/30 05:32:54;;;;;;;12.80;4.57;;;;;;;26.98;49.39;98899.84;6100822;23;20521;-88
2022/08/30 05:35:20;;;;;;;8.93;4.15;;;;;;;27.05;49.19;98905.28;6126043;23;20156;-90
2022/08/30 05:37:49;;;;;;;7.40;4.13;;;;;;;26.96;49.53;98901.91;6127028;23;20152;-90
2022/08/30 05:40:17;;;;;;;9.07;5.13;;;;;;;26.97;49.94;98900.84;6126242;23;20175;-89
2022/08/30 05:42:44;;;;;;;7.17;4.27;;;;;;;27.25;49.21;98907.16;6126217;23;20148;-89
2022/08/30 05:45:11;;;;;;;16.47;5.03;;;;;;;27.33;47.99;98901.63;6126312;23;20213;-90
2022/08/30 05:47:37;;;;;;;10.50;4.35;;;;;;;27.40;48.29;98905.28;6126535;23;20291;-88
2022/08/30 05:50:05;;;;;;;7.43;4.28;;;;;;;27.27;48.08;98918.56;6126274;23;20174;-88
2022/08/30 05:52:34;;;;;;;7.93;3.95;;;;;;;27.36;48.57;98905.81;6126487;23;20587;-89
2022/08/30 05:55:02;;;;;;;13.27;5.20;;;;;;;27.51;48.15;98911.16;6126620;23;20219;-89
2022/08/30 05:57:31;;;;;;;11.40;5.10;;;;;;;27.65;48.30;98899.47;6100728;23;20485;-89
2022/08/30 05:59:57;;;;;;;7.50;4.10;;;;;;;27.74;47.27;98903.69;6126230;23;20148;-88
2022/08/30 06:02:22;;;;;;;12.80;4.50;;;;;;;27.92;47.06;98904.03;6100721;23;20167;-89
2022/08/30 06:04:48;;;;;;;8.50;4.10;;;;;;;28.11;46.55;98902.53;6100702;23;20160;-89
2022/08/30 06:07:13;;;;;;;8.88;3.83;;;;;;;28.09;46.52;98904.59;6126125;23;20159;-88
2022/08/30 06:09:39;;;;;;;8.95;4.00;;;;;;;28.14;45.98;98905.69;6100622;23;20191;-88
2022/08/30 06:12:04;;;;;;;8.50;4.20;;;;;;;28.30;46.53;98893.75;6101059;23;20564;-89
2022/08/30 06:14:30;;;;;;;7.35;4.20;;;;;;;28.35;45.97;98900.22;6100593;23;20187;-88
2022/08/30 06:16:57;;;;;;;11.77;4.63;;;;;;;28.55;45.51;98902.97;6100637;23;20179;-89
2022/08/30 06:19:22;;;;;;;6.63;3.80;;;;;;;28.88;45.22;98900.47;6100629;23;20541;-88
2022/08/30 06:21:50;;;;;;;10.75;4.65;;;;;;;28.99;44.23;98910.66;6126083;23;20171;-90
2022/08/30 06:24:16;;;;;;;9.43;4.32;;;;;;;29.17;44.64;98910.91;6126029;23;20221;-88
2022/08/30 06:26:43;;;;;;;9.60;4.50;;;;;;;29.34;43.54;98906.81;6126148;23;20152;-89
2022/08/30 06:29:13;;;;;;;6.78;3.72;;;;;;;29.49;43.04;98915.56;6100822;23;20180;-88
2022/08/30 06:31:38;;;;;;;6.15;4.10;;;;;;;29.84;41.73;98918.94;6126056;23;20528;-88
2022/08/30 06:34:04;;;;;;;8.73;3.90;;;;;;;30.08;41.51;98921.00;6100432;23;20179;-88
2022/08/30 06:36:30;;;;;;;7.97;4.35;;;;;;;30.29;41.22;98917.19;6125984;23;20162;-89
2022/08/30 06:38:57;;;;;;;5.95;3.85;;;;;;;30.46;41.13;98918.41;6126371;23;20573;-88
2022/08/30 06:41:28;;;;;;;8.55;3.97;;;;;;;30.79;40.41;98912.91;6126045;23;20175;-88
2022/08/30 06:43:54;;;;;;;9.85;3.67;;;;;;;30.98;40.03;98920.94;6126358;23;20148;-88
2022/08/30 06:46:31;;;;;;;7.57;3.70;;;;;;;31.15;38.95;98917.75;6127843;23;20226;-88
2022/08/30 06:48:57;;;;;;;9.82;3.60;;;;;;;31.11;39.35;98919.19;6102882;23;20238;-89
2022/08/30 06:51:35;;;;;;;9.73;3.58;;;;;;;31.38;38.87;98920.72;6127737;23;20223;-88
2022/08/30 06:54:01;;;;;;;6.95;3.95;;;;;;;31.45;38.45;98914.22;6128582;23;20172;-89
2022/08/30 06:56:27;;;;;;;8.95;4.00;;;;;;;31.72;38.80;98922.16;6128039;23;20148;-90
2022/08/30 06:58:52;;;;;;;8.38;4.07;;;;;;;31.70;37.65;98924.25;6127728;23;20207;-89
2022/08/30 07:01:24;;;;;;;10.98;4.25;;;;;;;31.79;37.69;98923.75;6127709;23;20151;-89
2022/08/30 07:03:50;;;;;;;5.38;3.10;;;;;;;31.80;38.18;98927.31;6127725;23;20155;-88
2022/08/30 07:06:20;;;;;;;7.07;3.60;;;;;;;32.03;37.95;98922.94;6102017;23;20234;-90
2022/08/30 07:08:49;;;;;;;6.90;3.58;;;;;;;32.07;38.08;98929.59;6102011;23;20638;-90
2022/08/30 07:11:34;;;;;;;8.05;4.22;;;;;;;32.23;37.83;98926.28;6127546;23;20147;-88
2022/08/30 07:14:00;;;;;;;8.52;3.80;;;;;;;32.43;37.62;98919.81;6127559;23;20447;-89
2022/08/30 07:16:26;;;;;;;6.43;3.60;;;;;;;32.23;37.09;98931.72;6102026;23;20160;-89
2022/08/30 07:18:55;;;;;;;9.20;3.88;;;;;;;32.27;37.41;98933.97;6127460;23;20144;-90
2022/08/30 07:21:30;;;;;;;7.55;3.90;;;;;;;32.15;37.65;98931.19;6101958;23;20159;-88
2022/08/30 07:23:57;;;;;;;9.55;4.53;;;;;;;32.32;37.32;98934.13;6127757;23;20198;-88
2022/08/30 07:26:26;;;;;;;7.40;3.20;;;;;;;32.68;36.98;98928.75;6127390;23;20152;-89
2022/08/30 07:29:02;;;;;;;6.90;4.00;;;;;;;32.74;36.66;98931.38;6127617;23;20175;-90
2022/08/30 07:31:28;;;;;;;7.00;3.72;;;;;;;32.49;36.27;98932.50;6101931;23;20495;-89
2022/08/30 07:33:54;;;;;;;8.65;3.80;;;;;;;32.77;36.28;98932.81;6101761;23;20156;-89
2022/08/30 07:36:20;;;;;;;5.65;3.53;;;;;;;33.08;36.54;98921.78;6127323;23;20278;-88
2022/08/30 07:38:48;;;;;;;7.53;3.80;;;;;;;33.17;35.85;98931.28;6127593;23;20560;-89
2022/08/30 07:41:21;;;;;;;11.07;3.70;;;;;;;33.47;36.08;98927.69;6101668;23;20561;-88
2022/08/30 07:43:46;;;;;;;8.02;3.15;;;;;;;33.84;35.31;98921.06;6127880;23;20607;-88
2022/08/30 07:46:12;;;;;;;5.68;3.15;;;;;;;33.95;34.13;98928.41;6101596;23;20155;-88
2022/08/30 07:48:38;;;;;;;6.75;3.38;;;;;;;34.17;34.13;98925.97;6101451;23;20190;-89
2022/08/30 07:51:07;;;;;;;11.10;3.20;;;;;;;34.29;34.39;98930.34;6101650;23;20156;-91
2022/08/30 07:53:33;;;;;;;4.50;2.72;;;;;;;34.27;32.98;98923.47;6101346;23;20206;-88
2022/08/30 07:55:58;;;;;;;6.10;3.88;;;;;;;34.36;33.77;98928.31;6101583;23;20151;-89
2022/08/30 07:58:24;;;;;;;5.95;3.33;;;;;;;34.44;34.04;98927.94;6126847;23;20248;-89
2022/08/30 08:00:53;;;;;;;5.78;3.08;;;;;;;34.46;33.79;98927.72;6101553;23;20159;-90
2022/08/30 08:03:18;;;;;;;6.45;3.30;;;;;;;34.24;33.09;98930.22;6127075;23;20215;-88
2022/08/30 08:05:44;;;;;;;5.10;3.08;;;;;;;34.38;32.59;98931.59;6127061;23;20445;-89
2022/08/30 08:08:11;;;;;;;7.07;3.00;;;;;;;34.63;33.12;98925.09;6127607;23;20180;-88
2022/08/30 08:10:39;;;;;;;6.38;3.08;;;;;;;34.82;33.44;98932.03;6127386;23;20226;-89
2022/08/30 08:13:05;;;;;;;8.10;3.20;;;;;;;34.88;32.38;98925.63;6127674;23;20152;-89
2022/08/30 08:15:31;;;;;;;8.27;3.17;;;;;;;35.00;32.74;98926.41;6126961;23;20192;-90
2022/08/30 08:17:57;;;;;;;5.78;2.83;;;;;;;35.32;32.25;98913.97;6126928;23;20168;-89
2022/08/30 08:20:24;;;;;;;12.75;3.70;;;;;;;35.43;32.28;98920.44;6126890;23;20568;-89
2022/08/30 08:22:50;;;;;;;6.68;3.03;;;;;;;35.33;31.71;98921.06;6127014;23;20162;-90
2022/08/30 08:25:16;;;;;;;6.57;3.55;;;;;;;35.43;31.39;98921.25;6127855;23;20151;-90
2022/08/30 08:27:42;;;;;;;6.80;2.60;;;;;;;35.30;31.38;98921.56;6101117;23;20166;-89
2022/08/30 08:30:09;;;;;;;7.93;3.50;;;;;;;35.32;31.54;98922.16;6101447;23;20178;-88
2022/08/30 08:32:35;;;;;;;11.02;2.60;;;;;;;35.48;31.29;98918.63;6126803;23;20671;-91
2022/08/30 08:35:01;;;;;;;7.68;3.45;;;;;;;35.50;31.72;98919.22;6127038;23;20235;-89
2022/08/30 08:37:27;;;;;;;5.28;3.00;;;;;;;35.73;31.96;98913.63;6126662;23;20161;-89
2022/08/30 08:39:52;;;;;;;4.80;2.78;;;;;;;35.94;30.82;98911.22;6101197;23;20156;-88
2022/08/30 08:42:41;;;;;;;6.95;2.38;;;;;;;35.87;31.29;98905.94;6101106;23;20182;-89
2022/08/30 08:45:22;;;;;;;7.43;2.85;;;;;;;35.90;30.36;98912.81;6105306;23;20159;-89
2022/08/30 08:47:54;;;;;;;5.30;2.75;;;;;;;36.09;29.69;98914.22;6126978;23;20215;-88
2022/08/30 08:50:20;;;;;;;9.98;2.67;;;;;;;35.93;29.38;98909.59;6101012;23;20156;-88
2022/08/30 08:55:48;;;;;;;14.25;2.95;;;;;;;36.49;29.44;98912.09;6127043;23;20162;-88
2022/08/30 08:58:27;;;;;;;7.18;3.10;;;;;;;36.65;29.79;98903.03;6100923;23;20155;-88
2022/08/30 09:00:55;;;;;;;7.95;2.75;;;;;;;36.94;29.13;98901.75;6101001;23;20182;-90
2022/08/30 09:03:22;;;;;;;6.07;2.15;;;;;;;37.02;29.54;98902.38;6126789;23;20179;-90
2022/08/30 09:05:48;;;;;;;6.63;2.47;;;;;;;36.90;29.60;98897.84;6102060;23;20180;-90
2022/08/30 09:08:16;;;;;;;5.15;2.22;;;;;;;36.83;29.86;98891.75;6126245;23;20198;-87
2022/08/30 09:10:55;;;;;;;8.57;3.72;;;;;;;36.90;29.77;98894.28;6126350;23;20607;-89
2022/08/30 09:13:22;;;;;;;5.85;2.65;;;;;;;37.02;29.21;98897.75;6101741;23;20163;-91
2022/08/30 09:15:49;;;;;;;5.88;2.50;;;;;;;37.17;29.45;98895.16;6127181;23;20152;-89
2022/08/30 09:18:15;;;;;;;7.07;2.78;;;;;;;37.35;28.57;98885.75;6101212;23;20155;-89
2022/08/30 09:20:47;;;;;;;7.78;2.63;;;;;;;37.24;29.21;98884.03;6127073;23;20206;-88
2022/08/30 09:23:12;;;;;;;8.50;2.40;;;;;;;37.47;28.09;98883.72;6100797;23;20164;-89
2022/08/30 09:25:50;;;;;;;6.22;2.90;;;;;;;37.69;28.30;98873.50;6126976;23;20162;-89
2022/08/30 09:28:22;;;;;;;9.05;3.78;;;;;;;37.73;28.43;98865.59;6126704;23;20210;-89
2022/08/30 09:31:16;;;;;;;5.70;2.83;;;;;;;37.78;29.09;98868.38;6126067;23;20150;-90
2022/08/30 09:34:00;;;;;;;5.30;2.90;;;;;;;37.47;28.62;98868.16;6099282;23;20144;-89
2022/08/30 09:36:38;;;;;;;5.22;2.45;;;;;;;37.47;29.08;98857.22;6100366;23;20156;-88
2022/08/30 09:39:14;;;;;;;9.73;3.03;;;;;;;37.83;29.10;98861.03;6125464;23;20139;-88
2022/08/30 09:41:47;;;;;;;6.28;2.67;;;;;;;37.89;29.04;98854.53;6100248;23;20290;-88
2022/08/30 09:44:19;;;;;;;8.25;3.13;;;;;;;38.11;27.98;98855.22;6126653;23;20147;-88
2022/08/30 09:46:48;;;;;;;7.95;2.67;;;;;;;38.27;27.42;98847.06;6126566;23;20210;-88
2022/08/30 09:49:41;;;;;;;5.35;2.95;;;;;;;38.23;28.17;98856.94;6126318;23;20171;-89
2022/08/30 09:52:13;;;;;;;4.53;2.67;;;;;;;38.23;27.90;98854.19;6125697;23;20132;-89
2022/08/30 09:54:59;;;;;;;3.78;2.30;;;;;;;38.19;27.94;98845.66;6126147;23;20564;-88
2022/08/30 09:57:34;;;;;;;5.00;2.55;;;;;;;38.42;27.28;98842.53;6100709;23;20495;-89
2022/08/30 10:00:20;;;;;;;7.38;2.50;;;;;;;38.52;26.07;98839.03;6100713;23;20457;-89
2022/08/30 10:03:20;;;;;;;8.80;2.92;;;;;;;38.27;26.12;98834.22;6126558;23;20166;-87
2022/08/30 10:06:06;;;;;;;3.20;2.22;;;;;;;38.51;25.56;98831.88;6116845;23;20171;-89
2022/08/30 10:08:47;;;;;;;6.20;2.85;;;;;;;38.64;25.54;98834.13;6126384;23;20168;-89
2022/08/30 10:11:36;;;;;;;10.30;2.63;;;;;;;38.78;25.61;98829.81;6100264;23;20202;-88
2022/08/30 10:14:20;;;;;;;3.88;2.03;;;;;;;38.93;24.68;98827.09;6125940;23;20136;-88
2022/08/30 10:17:12;;;;;;;7.78;2.25;;;;;;;38.39;24.94;98826.66;6124904;23;20160;-88
2022/08/30 10:20:06;;;;;;;4.78;2.17;;;;;;;37.98;25.70;98819.28;6126128;23;20133;-89
2022/08/30 10:22:45;;;;;;;4.90;2.17;;;;;;;38.38;25.82;98807.72;6127061;23;20175;-88
2022/08/30 10:25:21;;;;;;;4.90;2.65;;;;;;;38.63;25.72;98810.53;6127903;23;20135;-88
2022/08/30 10:28:02;;;;;;;5.03;2.53;;;;;;;38.56;25.40;98805.31;6127832;23;20138;-88
2022/08/30 10:30:32;;;;;;;5.10;2.13;;;;;;;38.91;24.86;98807.38;6127836;23;20227;-88
2022/08/30 10:33:09;;;;;;;5.63;1.65;;;;;;;39.10;25.01;98804.94;6128011;23;20139;-88
2022/08/30 10:35:42;;;;;;;6.15;2.17;;;;;;;39.43;24.03;98804.41;6128591;23;20566;-88
2022/08/30 10:38:14;;;;;;;5.72;2.15;;;;;;;39.42;24.09;98800.00;6128254;23;20144;-88
2022/08/30 10:43:40;;;;;;;6.03;2.05;;;;;;;39.86;23.12;98789.28;6128536;23;20519;-87
2022/08/30 10:46:26;;;;;;;5.63;1.95;;;;;;;40.07;24.07;98787.31;6128520;23;20140;-88
2022/08/30 10:48:55;;;;;;;4.20;1.67;;;;;;;39.67;23.80;98782.72;6128351;23;20175;-88
2022/08/30 10:51:31;;;;;;;8.50;2.20;;;;;;;40.16;23.04;98786.47;6128360;23;20152;-88
2022/08/30 10:54:15;;;;;;;7.75;1.80;;;;;;;40.17;21.99;98781.78;6102072;23;20218;-89
2022/08/30 10:56:42;;;;;;;7.93;2.08;;;;;;;40.14;22.42;98783.19;6128360;23;20210;-88
2022/08/30 10:59:08;;;;;;;4.28;2.10;;;;;;;40.09;22.90;98774.13;6127968;23;20155;-89
2022/08/30 11:01:33;;;;;;;7.85;2.28;;;;;;;40.48;21.30;98767.66;6127916;23;20147;-87
2022/08/30 11:04:24;;;;;;;7.28;1.95;;;;;;;39.80;21.72;98766.50;6127877;23;20210;-88
2022/08/30 11:06:56;;;;;;;4.30;1.67;;;;;;;39.74;22.37;98769.53;6127933;23;20136;-88
2022/08/30 11:09:46;;;;;;;3.33;1.80;;;;;;;39.95;21.76;98757.38;6128157;23;20294;-88
2022/08/30 11:12:30;;;;;;;5.15;1.65;;;;;;;40.35;21.07;98751.78;6102024;23;20158;-88
2022/08/30 11:14:56;;;;;;;7.20;1.50;;;;;;;40.53;21.60;98744.00;6127891;23;20579;-88
2022/08/30 11:17:31;;;;;;;7.78;1.70;;;;;;;40.61;21.57;98737.91;6127457;23;20152;-89
2022/08/30 11:19:59;;;;;;;10.98;2.33;;;;;;;40.72;21.18;98731.22;6128132;23;20143;-87
2022/08/30 11:22:36;;;;;;;4.30;1.45;;;;;;;40.79;19.59;98735.31;6127449;23;20148;-88
2022/08/30 11:25:04;;;;;;;4.30;1.80;;;;;;;40.73;20.26;98735.59;6127701;23;20157;-87
2022/08/30 11:27:41;;;;;;;5.00;2.25;;;;;;;40.28;21.40;98737.50;6101850;23;20160;-88
2022/08/30 11:30:24;;;;;;;5.55;1.65;;;;;;;40.13;21.00;98732.09;6127330;23;20647;-88
2022/08/30 11:33:04;;;;;;;10.05;2.00;;;;;;;40.27;21.02;98727.63;6127486;23;20580;-87
2022/08/30 11:35:41;;;;;;;7.80;2.30;;;;;;;40.76;21.26;98713.03;6127691;23;20623;-88
2022/08/30 11:38:16;;;;;;;4.53;1.90;;;;;;;40.87;20.73;98729.19;6127643;23;20143;-86
2022/08/30 11:40:49;;;;;;;3.80;1.52;;;;;;;40.93;20.78;98719.00;6127603;23;20147;-87
2022/08/30 11:43:33;;;;;;;6.05;1.80;;;;;;;40.66;19.74;98713.94;6127619;23;20143;-87
2022/08/30 11:46:25;;;;;;;2.97;1.73;;;;;;;40.78;20.62;98710.84;6127522;23;20151;-87
2022/08/30 11:49:01;;;;;;;4.90;1.98;;;;;;;41.09;20.36;98712.28;6127486;23;20333;-87